createdAt,value
2023-02-11T00:01:06.586Z,8.45
2023-02-11T00:03:33.086Z,4.45
2023-02-11T00:06:06.089Z,6.30
2023-02-11T00:08:32.487Z,13.70
2023-02-11T00:10:58.885Z,8.70
2023-02-11T00:13:26.105Z,9.57
2023-02-11T00:15:53.431Z,8.57
2023-02-11T00:18:20.033Z,13.13
2023-02-11T00:20:46.506Z,4.63
2023-02-11T00:23:13.402Z,10.90
2023-02-11T00:25:41.526Z,11.13
2023-02-11T00:28:08.933Z,4.88
2023-02-11T00:30:35.953Z,7.82
2023-02-11T00:33:03.431Z,4.15
2023-02-11T00:35:31.618Z,7.93
2023-02-11T00:37:58.056Z,12.43
2023-02-11T00:40:24.560Z,11.27
2023-02-11T00:42:51.104Z,7.28
2023-02-11T00:45:17.645Z,9.48
2023-02-11T00:47:44.110Z,14.77
2023-02-11T00:50:10.549Z,8.25
2023-02-11T00:52:36.963Z,7.75
2023-02-11T00:55:03.570Z,7.75
2023-02-11T00:57:31.602Z,9.57
2023-02-11T00:59:57.981Z,8.23
2023-02-11T01:02:24.401Z,6.45
2023-02-11T01:04:50.859Z,8.88
2023-02-11T01:07:17.265Z,11.95
2023-02-11T01:09:43.772Z,8.25
2023-02-11T01:12:10.246Z,15.27
2023-02-11T01:14:36.792Z,8.23
2023-02-11T01:17:05.681Z,7.43
2023-02-11T01:19:32.134Z,9.75
2023-02-11T01:21:58.510Z,9.55
2023-02-11T01:24:25.118Z,11.65
2023-02-11T01:26:51.503Z,5.57
2023-02-11T01:29:17.896Z,5.28
2023-02-11T01:31:44.297Z,11.27
2023-02-11T01:34:10.710Z,11.85
2023-02-11T01:36:37.456Z,10.25
2023-02-11T01:39:03.958Z,11.48
2023-02-11T01:41:30.460Z,9.98
2023-02-11T01:43:58.026Z,7.30
2023-02-11T01:46:36.889Z,9.15
2023-02-11T01:49:11.813Z,9.50
2023-02-11T01:52:01.760Z,6.93
2023-02-11T01:55:00.873Z,11.07
2023-02-11T01:57:32.404Z,6.43
2023-02-11T02:00:20.799Z,19.10
2023-02-11T02:03:02.553Z,18.58
2023-02-11T02:06:05.987Z,6.57
2023-02-11T02:08:35.400Z,11.52
2023-02-11T02:11:03.001Z,8.30
2023-02-11T02:13:32.165Z,9.20
2023-02-11T02:16:04.506Z,7.40
2023-02-11T02:19:05.972Z,11.40
2023-02-11T02:21:59.899Z,9.13
2023-02-11T02:24:51.172Z,11.38
2023-02-11T02:28:09.406Z,10.13
2023-02-11T02:30:50.944Z,10.43
2023-02-11T02:33:54.608Z,10.63
2023-02-11T02:36:33.759Z,8.55
2023-02-11T02:39:06.150Z,8.48
2023-02-11T02:41:35.701Z,7.72
2023-02-11T02:44:02.886Z,4.13
2023-02-11T02:46:31.968Z,9.75
2023-02-11T02:48:58.893Z,14.98
2023-02-11T02:51:51.994Z,7.55
2023-02-11T02:54:43.740Z,9.95
2023-02-11T02:57:18.826Z,9.60
2023-02-11T03:00:21.332Z,9.23
2023-02-11T03:02:58.947Z,15.07
2023-02-11T03:05:50.091Z,8.55
2023-02-11T03:08:18.686Z,15.60
2023-02-11T03:10:50.972Z,16.27
2023-02-11T03:13:21.674Z,8.63
2023-02-11T03:18:24.071Z,10.43
2023-02-11T03:20:53.533Z,9.65
2023-02-11T03:23:33.220Z,8.32
2023-02-11T03:26:06.750Z,13.45
2023-02-11T03:28:49.350Z,12.93
2023-02-11T03:31:42.132Z,9.88
2023-02-11T03:34:26.271Z,12.73
2023-02-11T03:37:06.507Z,6.70
2023-02-11T03:39:40.170Z,5.95
2023-02-11T03:42:09.678Z,6.07
2023-02-11T03:44:53.333Z,12.98
2023-02-11T03:47:24.482Z,9.70
2023-02-11T03:49:53.170Z,11.05
2023-02-11T03:52:21.443Z,10.73
2023-02-11T03:54:53.415Z,8.80
2023-02-11T03:57:19.858Z,11.75
2023-02-11T03:59:55.581Z,12.63
2023-02-11T04:02:29.136Z,12.88
2023-02-11T04:04:55.821Z,10.30
2023-02-11T04:07:22.294Z,17.58
2023-02-11T04:09:48.711Z,10.85
2023-02-11T04:12:15.199Z,10.65
2023-02-11T04:14:41.687Z,15.98
2023-02-11T04:17:08.353Z,14.93
2023-02-11T04:19:35.019Z,14.45
2023-02-11T04:22:02.317Z,7.25
2023-02-11T04:24:28.791Z,10.40
2023-02-11T04:26:55.494Z,13.05
2023-02-11T04:29:22.205Z,13.63
2023-02-11T04:31:49.122Z,10.77
2023-02-11T04:34:15.904Z,8.90
2023-02-11T04:36:42.306Z,8.55
2023-02-11T04:39:08.714Z,14.00
2023-02-11T04:41:35.243Z,17.08
2023-02-11T04:44:01.654Z,16.55
2023-02-11T04:46:28.166Z,10.85
2023-02-11T04:48:54.629Z,13.52
2023-02-11T04:51:21.069Z,13.82
2023-02-11T04:53:47.523Z,17.85
2023-02-11T04:56:13.905Z,12.48
2023-02-11T04:58:40.339Z,17.05
2023-02-11T05:01:12.656Z,25.45
2023-02-11T05:03:40.042Z,19.50
2023-02-11T05:06:06.933Z,15.55
2023-02-11T05:08:33.685Z,13.63
2023-02-11T05:11:02.058Z,16.83
2023-02-11T05:13:29.375Z,17.05
2023-02-11T05:15:55.949Z,10.65
2023-02-11T05:18:22.880Z,14.65
2023-02-11T05:20:49.368Z,22.77
2023-02-11T05:23:15.804Z,15.25
2023-02-11T05:25:42.252Z,18.67
2023-02-11T05:28:08.765Z,14.68
2023-02-11T05:30:35.303Z,14.88
2023-02-11T05:33:01.844Z,24.48
2023-02-11T05:35:28.287Z,16.02
2023-02-11T05:37:54.680Z,18.02
2023-02-11T05:40:21.222Z,20.55
2023-02-11T05:42:47.730Z,11.93
2023-02-11T05:45:14.182Z,13.63
2023-02-11T05:47:40.627Z,15.20
2023-02-11T05:50:07.305Z,16.98
2023-02-11T05:52:33.754Z,18.98
2023-02-11T05:55:00.306Z,17.35
2023-02-11T05:57:26.795Z,22.60
2023-02-11T05:59:53.226Z,12.75
2023-02-11T06:02:19.771Z,21.75
2023-02-11T06:04:46.230Z,18.60
2023-02-11T06:07:12.627Z,24.83
2023-02-11T06:09:39.250Z,22.30
2023-02-11T06:12:05.825Z,21.77
2023-02-11T06:14:34.060Z,17.90
2023-02-11T06:17:01.337Z,20.52
2023-02-11T06:19:27.832Z,23.55
2023-02-11T06:21:56.300Z,15.25
2023-02-11T06:24:47.856Z,13.98
2023-02-11T06:27:09.442Z,18.90
2023-02-11T06:29:36.090Z,24.38
2023-02-11T06:32:02.641Z,19.42
2023-02-11T06:34:29.169Z,20.20
2023-02-11T06:36:55.587Z,22.25
2023-02-11T06:39:22.125Z,21.52
2023-02-11T06:41:48.583Z,19.10
2023-02-11T06:44:15.036Z,18.52
2023-02-11T06:46:41.438Z,19.92
2023-02-11T06:49:07.906Z,24.85
2023-02-11T06:51:34.365Z,29.17
2023-02-11T06:54:00.807Z,23.77
2023-02-11T06:56:27.496Z,15.40
2023-02-11T06:58:57.652Z,15.10
2023-02-11T07:01:25.863Z,15.98
2023-02-11T07:03:52.547Z,21.25
2023-02-11T07:06:21.793Z,25.63
2023-02-11T07:08:48.985Z,24.10
2023-02-11T07:11:24.644Z,22.55
2023-02-11T07:13:52.721Z,17.40
2023-02-11T07:16:20.027Z,22.90
2023-02-11T07:18:47.948Z,18.83
2023-02-11T07:21:17.950Z,16.48
2023-02-11T07:23:45.013Z,18.70
2023-02-11T07:26:14.672Z,22.30
2023-02-11T07:28:41.959Z,19.58
2023-02-11T07:31:37.573Z,24.17
2023-02-11T07:34:04.127Z,25.77
2023-02-11T07:36:31.934Z,22.00
2023-02-11T07:39:00.078Z,19.67
2023-02-11T07:41:26.991Z,18.77
2023-02-11T07:43:53.437Z,18.70
2023-02-11T07:46:25.784Z,20.17
2023-02-11T07:48:53.147Z,20.80
2023-02-11T07:51:22.537Z,19.63
2023-02-11T07:53:49.705Z,19.45
2023-02-11T07:56:17.657Z,21.20
2023-02-11T07:58:44.206Z,27.80
2023-02-11T08:01:22.476Z,21.58
2023-02-11T08:03:48.990Z,24.10
2023-02-11T08:06:17.473Z,18.45
2023-02-11T08:08:44.604Z,23.35
2023-02-11T08:11:16.697Z,19.15
2023-02-11T08:13:43.201Z,22.58
2023-02-11T08:16:16.809Z,19.00
2023-02-11T08:18:43.377Z,23.63
2023-02-11T08:21:10.622Z,23.80
2023-02-11T08:23:39.082Z,21.80
2023-02-11T08:26:08.412Z,26.40
2023-02-11T08:28:37.201Z,18.55
2023-02-11T08:31:08.711Z,19.48
2023-02-11T08:33:35.300Z,24.48
2023-02-11T08:36:03.386Z,23.33
2023-02-11T08:38:29.765Z,26.48
2023-02-11T08:40:56.141Z,28.13
2023-02-11T08:43:23.499Z,23.35
2023-02-11T08:45:50.275Z,24.17
2023-02-11T08:48:16.917Z,22.30
2023-02-11T08:50:43.377Z,25.83
2023-02-11T08:53:09.832Z,18.08
2023-02-11T08:55:36.306Z,19.77
2023-02-11T08:58:02.845Z,21.77
2023-02-11T09:00:29.857Z,22.02
2023-02-11T09:02:56.258Z,22.92
2023-02-11T09:05:23.032Z,25.67
2023-02-11T09:07:49.501Z,22.23
2023-02-11T09:10:16.061Z,23.38
2023-02-11T09:12:42.426Z,22.75
2023-02-11T09:15:09.297Z,15.65
2023-02-11T09:17:35.694Z,23.25
2023-02-11T09:20:02.100Z,26.98
2023-02-11T09:22:28.527Z,19.77
2023-02-11T09:24:54.980Z,19.35
2023-02-11T09:27:21.444Z,17.10
2023-02-11T09:29:47.918Z,25.35
2023-02-11T09:32:14.546Z,18.98
2023-02-11T09:34:41.283Z,21.98
2023-02-11T09:37:07.680Z,20.05
2023-02-11T09:39:34.073Z,22.02
2023-02-11T09:42:10.673Z,16.65
2023-02-11T09:44:39.505Z,23.48
2023-02-11T09:47:22.497Z,22.10
2023-02-11T09:49:51.642Z,19.95
2023-02-11T09:52:44.870Z,19.25
2023-02-11T09:55:27.944Z,16.70
2023-02-11T09:57:56.049Z,20.88
2023-02-11T10:00:36.286Z,20.45
2023-02-11T10:03:18.807Z,17.73
2023-02-11T10:06:03.794Z,17.77
2023-02-11T10:08:34.420Z,16.40
2023-02-11T10:11:20.091Z,15.00
2023-02-11T10:14:27.137Z,16.13
2023-02-11T10:17:02.792Z,19.55
2023-02-11T10:19:41.685Z,20.05
2023-02-11T10:22:19.189Z,14.70
2023-02-11T10:24:54.256Z,21.73
2023-02-11T10:27:28.512Z,18.58
2023-02-11T10:30:12.478Z,19.42
2023-02-11T10:33:04.234Z,18.92
2023-02-11T10:35:31.807Z,15.60
2023-02-11T10:37:59.679Z,14.95
2023-02-11T10:40:29.064Z,14.18
2023-02-11T10:43:00.672Z,14.35
2023-02-11T10:45:41.898Z,22.80
2023-02-11T10:48:42.231Z,13.48
2023-02-11T10:51:19.845Z,11.02
2023-02-11T10:53:49.533Z,13.75
2023-02-11T10:56:26.657Z,10.80
2023-02-11T10:59:01.036Z,13.82
2023-02-11T11:01:43.642Z,10.52
2023-02-11T11:04:33.877Z,11.70
2023-02-11T11:07:17.962Z,11.27
2023-02-11T11:10:02.471Z,10.75
2023-02-11T11:12:47.192Z,10.77
2023-02-11T11:15:18.799Z,13.05
2023-02-11T11:17:46.172Z,11.35
2023-02-11T11:20:20.753Z,9.90
2023-02-11T11:22:49.933Z,10.90
2023-02-11T11:25:30.302Z,11.88
2023-02-11T11:28:00.311Z,11.27
2023-02-11T11:30:39.701Z,13.45
2023-02-11T11:33:19.326Z,9.63
2023-02-11T11:35:57.391Z,14.77
2023-02-11T11:38:24.516Z,14.18
2023-02-11T11:41:18.357Z,9.90
2023-02-11T11:44:21.453Z,13.93
2023-02-11T11:46:51.094Z,9.13
2023-02-11T11:49:29.294Z,10.82
2023-02-11T11:52:13.931Z,6.90
2023-02-11T11:54:45.217Z,10.35
2023-02-11T11:57:18.354Z,11.60
2023-02-11T11:59:45.254Z,10.75
2023-02-11T12:02:41.303Z,12.38
2023-02-11T12:05:45.512Z,9.50
2023-02-11T12:08:20.562Z,8.40
2023-02-11T12:11:24.255Z,7.85
2023-02-11T12:14:08.956Z,9.38
2023-02-11T12:17:03.044Z,9.13
2023-02-11T12:19:57.477Z,8.63
2023-02-11T12:22:53.129Z,7.18
2023-02-11T12:25:37.818Z,8.70
2023-02-11T12:28:15.312Z,5.88
2023-02-11T12:30:50.322Z,7.97
2023-02-11T12:33:16.782Z,8.40
2023-02-11T12:35:48.931Z,6.50
2023-02-11T12:38:43.204Z,7.38
2023-02-11T12:41:57.489Z,6.15
2023-02-11T12:44:40.503Z,5.78
2023-02-11T12:47:25.012Z,9.27
2023-02-11T12:50:24.700Z,6.57
2023-02-11T12:53:00.315Z,6.35
2023-02-11T12:55:29.905Z,4.22
2023-02-11T12:58:00.245Z,6.10
2023-02-11T13:03:33.095Z,5.95
2023-02-11T13:06:05.045Z,7.35
2023-02-11T13:08:35.201Z,6.45
2023-02-11T13:11:14.236Z,5.85
2023-02-11T13:13:49.569Z,7.10
2023-02-11T13:16:29.432Z,8.55
2023-02-11T13:19:11.473Z,7.30
2023-02-11T13:22:04.737Z,6.82
2023-02-11T13:25:01.501Z,5.70
2023-02-11T13:27:58.958Z,5.22
2023-02-11T13:30:35.114Z,5.80
2023-02-11T13:33:02.353Z,7.78
2023-02-11T13:35:57.425Z,8.65
2023-02-11T13:38:25.785Z,12.10
2023-02-11T13:41:04.335Z,9.23
2023-02-11T13:43:33.441Z,5.43
2023-02-11T13:46:03.157Z,8.23
2023-02-11T13:48:36.327Z,8.35
2023-02-11T13:51:09.004Z,6.55
2023-02-11T13:53:47.269Z,7.57
2023-02-11T13:56:29.680Z,6.32
2023-02-11T13:58:56.949Z,7.90
2023-02-11T14:02:17.762Z,5.25
2023-02-11T14:05:39.678Z,7.85
2023-02-11T14:08:30.810Z,6.28
2023-02-11T14:11:08.389Z,8.23
2023-02-11T14:13:46.929Z,6.22
2023-02-11T14:16:22.623Z,8.32
2023-02-11T14:18:54.654Z,6.40
2023-02-11T14:21:30.681Z,7.32
2023-02-11T14:24:04.697Z,6.43
2023-02-11T14:26:46.139Z,7.97
2023-02-11T14:29:18.784Z,6.53
2023-02-11T14:32:21.790Z,7.10
2023-02-11T14:35:05.887Z,6.22
2023-02-11T14:37:57.295Z,6.10
2023-02-11T14:40:32.909Z,7.13
2023-02-11T14:43:13.029Z,6.72
2023-02-11T14:45:40.257Z,7.90
2023-02-11T14:48:17.473Z,6.20
2023-02-11T14:50:54.942Z,6.63
2023-02-11T14:53:24.290Z,6.32
2023-02-11T14:55:52.965Z,7.20
2023-02-11T14:58:22.485Z,8.35
2023-02-11T15:01:00.860Z,9.35
2023-02-11T15:03:27.283Z,7.80
2023-02-11T15:06:01.853Z,5.30
2023-02-11T15:08:30.047Z,7.57
2023-02-11T15:10:57.851Z,6.90
2023-02-11T15:13:27.099Z,7.43
2023-02-11T15:15:57.849Z,9.23
2023-02-11T15:18:31.538Z,5.90
2023-02-11T15:20:58.034Z,8.43
2023-02-11T15:23:26.803Z,10.35
2023-02-11T15:25:56.065Z,5.47
2023-02-11T15:28:26.492Z,8.88
2023-02-11T15:31:05.743Z,6.93
2023-02-11T15:33:32.738Z,7.35
2023-02-11T15:36:02.194Z,5.82
2023-02-11T15:38:30.176Z,5.68
2023-02-11T15:40:58.349Z,6.88
2023-02-11T15:43:25.212Z,9.98
2023-02-11T15:45:51.540Z,9.23
2023-02-11T15:48:32.959Z,8.82
2023-02-11T15:51:04.919Z,9.90
2023-02-11T15:53:33.845Z,7.50
2023-02-11T15:56:17.462Z,6.50
2023-02-11T15:58:47.534Z,8.88
2023-02-11T16:01:14.287Z,6.80
2023-02-11T16:03:42.766Z,7.63
2023-02-11T16:06:42.306Z,6.82
2023-02-11T16:09:08.677Z,7.70
2023-02-11T16:11:57.897Z,9.85
2023-02-11T16:14:27.136Z,7.65
2023-02-11T16:16:58.222Z,6.82
2023-02-11T16:19:26.442Z,6.82
2023-02-11T16:21:58.547Z,8.57
2023-02-11T16:24:28.752Z,8.93
2023-02-11T16:26:58.969Z,8.38
2023-02-11T16:29:30.588Z,7.95
2023-02-11T16:32:16.188Z,9.32
2023-02-11T16:34:43.226Z,8.45
2023-02-11T16:37:10.080Z,9.57
2023-02-11T16:39:36.773Z,6.65
2023-02-11T16:42:06.357Z,11.02
2023-02-11T16:44:34.430Z,7.60
2023-02-11T16:47:03.207Z,6.22
2023-02-11T16:49:32.509Z,6.50
2023-02-11T16:52:03.880Z,8.07
2023-02-11T16:54:30.466Z,8.75
2023-02-11T16:56:57.272Z,5.55
2023-02-11T16:59:24.017Z,8.02
2023-02-11T17:01:53.170Z,8.38
2023-02-11T17:04:21.016Z,9.40
2023-02-11T17:06:50.873Z,6.70
2023-02-11T17:09:20.017Z,7.82
2023-02-11T17:11:46.797Z,8.13
2023-02-11T17:14:13.346Z,7.97
2023-02-11T17:16:40.149Z,5.35
2023-02-11T17:19:06.579Z,10.77
2023-02-11T17:21:33.290Z,8.13
2023-02-11T17:23:59.731Z,6.43
2023-02-11T17:26:26.163Z,6.18
2023-02-11T17:28:52.604Z,7.95
2023-02-11T17:31:19.167Z,10.63
2023-02-11T17:33:45.812Z,12.57
2023-02-11T17:36:12.404Z,7.68
2023-02-11T17:38:38.830Z,6.63
2023-02-11T17:41:05.438Z,6.60
2023-02-11T17:43:32.140Z,8.32
2023-02-11T17:45:58.567Z,7.25
2023-02-11T17:48:25.172Z,8.98
2023-02-11T17:50:51.565Z,5.97
2023-02-11T17:53:17.942Z,8.52
2023-02-11T17:55:44.320Z,7.10
2023-02-11T17:58:10.705Z,9.65
2023-02-11T18:00:37.168Z,8.15
2023-02-11T18:03:03.799Z,9.02
2023-02-11T18:05:35.465Z,10.13
2023-02-11T18:08:03.309Z,7.45
2023-02-11T18:10:30.013Z,7.55
2023-02-11T18:12:56.546Z,9.18
2023-02-11T18:15:23.033Z,9.98
2023-02-11T18:17:49.503Z,9.55
2023-02-11T18:20:16.051Z,8.93
2023-02-11T18:22:44.185Z,9.05
2023-02-11T18:25:15.122Z,9.50
2023-02-11T18:27:42.076Z,13.27
2023-02-11T18:30:15.062Z,7.78
2023-02-11T18:32:41.523Z,10.40
2023-02-11T18:35:14.775Z,11.10
2023-02-11T18:37:42.696Z,7.82
2023-02-11T18:40:10.758Z,10.38
2023-02-11T18:42:37.234Z,9.77
2023-02-11T18:45:07.033Z,11.93
2023-02-11T18:47:33.439Z,11.43
2023-02-11T18:49:59.860Z,10.20
2023-02-11T18:52:26.485Z,9.15
2023-02-11T18:54:52.871Z,11.65
2023-02-11T18:57:19.301Z,8.60
2023-02-11T18:59:45.706Z,9.23
2023-02-11T19:02:12.198Z,8.35
2023-02-11T19:04:38.694Z,10.18
2023-02-11T19:07:05.174Z,10.57
2023-02-11T19:09:31.665Z,11.18
2023-02-11T19:11:59.767Z,11.15
2023-02-11T19:14:29.495Z,8.35
2023-02-11T19:16:57.745Z,10.55
2023-02-11T19:19:27.882Z,9.95
2023-02-11T19:21:54.929Z,8.63
2023-02-11T19:24:22.568Z,7.97
2023-02-11T19:26:50.700Z,8.32
2023-02-11T19:29:18.834Z,6.88
2023-02-11T19:31:45.785Z,8.85
2023-02-11T19:34:14.389Z,10.55
2023-02-11T19:36:41.106Z,10.90
2023-02-11T19:39:07.842Z,8.75
2023-02-11T19:41:34.876Z,10.55
2023-02-11T19:44:02.032Z,8.40
2023-02-11T19:46:31.373Z,7.63
2023-02-11T19:48:59.984Z,7.68
2023-02-11T19:51:26.822Z,9.05
2023-02-11T19:53:53.879Z,10.43
2023-02-11T19:56:20.987Z,9.32
2023-02-11T19:58:47.532Z,12.18
2023-02-11T20:01:17.131Z,8.32
2023-02-11T20:03:43.666Z,10.50
2023-02-11T20:06:17.017Z,7.05
2023-02-11T20:08:44.014Z,9.48
2023-02-11T20:11:17.458Z,6.53
2023-02-11T20:13:44.295Z,10.75
2023-02-11T20:16:17.148Z,10.55
2023-02-11T20:18:44.364Z,11.75
2023-02-11T20:21:14.229Z,6.30
2023-02-11T20:23:40.757Z,8.82
2023-02-11T20:26:16.884Z,10.68
2023-02-11T20:28:43.776Z,10.57
2023-02-11T20:31:11.641Z,9.77
2023-02-11T20:33:39.091Z,10.63
2023-02-11T20:36:09.778Z,12.40
2023-02-11T20:38:36.669Z,10.10
2023-02-11T20:41:05.546Z,10.63
2023-02-11T20:43:32.394Z,9.00
2023-02-11T20:46:03.916Z,8.23
2023-02-11T20:48:31.459Z,9.23
2023-02-11T20:51:10.145Z,10.05
2023-02-11T20:53:38.694Z,11.07
2023-02-11T20:56:07.623Z,8.75
2023-02-11T20:58:34.738Z,8.48
2023-02-11T21:01:14.079Z,8.95
2023-02-11T21:03:40.814Z,10.23
2023-02-11T21:06:07.984Z,10.80
2023-02-11T21:08:34.494Z,11.00
2023-02-11T21:11:01.803Z,8.55
2023-02-11T21:13:28.351Z,8.68
2023-02-11T21:15:56.213Z,9.48
2023-02-11T21:18:23.974Z,13.15
2023-02-11T21:20:50.823Z,12.23
2023-02-11T21:23:17.383Z,10.43
2023-02-11T21:25:43.794Z,8.00
2023-02-11T21:28:10.221Z,8.15
2023-02-11T21:30:40.536Z,9.10
2023-02-11T21:33:07.370Z,10.30
2023-02-11T21:35:37.944Z,10.93
2023-02-11T21:38:04.822Z,7.38
2023-02-11T21:40:31.249Z,10.15
2023-02-11T21:42:58.496Z,7.45
2023-02-11T21:45:25.659Z,10.75
2023-02-11T21:47:52.321Z,8.57
2023-02-11T21:50:19.573Z,12.25
2023-02-11T21:52:46.186Z,9.70
2023-02-11T21:55:12.910Z,9.55
2023-02-11T21:57:39.454Z,8.57
2023-02-11T22:00:09.223Z,11.13
2023-02-11T22:02:38.060Z,9.88
2023-02-11T22:05:05.055Z,9.77
2023-02-11T22:07:31.641Z,12.68
2023-02-11T22:09:59.190Z,8.23
2023-02-11T22:12:25.592Z,9.90
2023-02-11T22:14:51.989Z,9.05
2023-02-11T22:17:18.537Z,12.02
2023-02-11T22:19:44.956Z,8.00
2023-02-11T22:22:17.970Z,9.10
2023-02-11T22:24:47.544Z,11.45
2023-02-11T22:27:20.200Z,8.80
2023-02-11T22:29:46.913Z,8.88
2023-02-11T22:32:13.877Z,10.57
2023-02-11T22:34:40.464Z,7.57
2023-02-11T22:37:07.479Z,11.15
2023-02-11T22:39:33.955Z,11.20
2023-02-11T22:42:00.414Z,10.73
2023-02-11T22:44:26.935Z,9.82
2023-02-11T22:46:53.693Z,8.57
2023-02-11T22:49:21.665Z,11.95
2023-02-11T22:51:48.934Z,12.80
2023-02-11T22:54:17.752Z,13.63
2023-02-11T22:56:44.720Z,10.90
2023-02-11T22:59:13.579Z,10.90
2023-02-11T23:01:40.672Z,12.75
2023-02-11T23:04:10.484Z,13.48
2023-02-11T23:06:37.165Z,11.90
2023-02-11T23:09:04.877Z,11.73
2023-02-11T23:11:31.835Z,10.25
2023-02-11T23:13:58.777Z,13.43
2023-02-11T23:16:30.720Z,12.98
2023-02-11T23:19:00.171Z,13.05
2023-02-11T23:21:29.615Z,10.05
2023-02-11T23:24:06.540Z,14.45
2023-02-11T23:26:34.035Z,11.57
2023-02-11T23:29:00.714Z,12.32
2023-02-11T23:31:40.311Z,12.15
2023-02-11T23:34:08.739Z,12.73
2023-02-11T23:36:35.588Z,14.18
2023-02-11T23:39:02.733Z,16.40
2023-02-11T23:41:29.199Z,9.57
2023-02-11T23:43:57.548Z,15.55
2023-02-11T23:46:25.620Z,11.18
2023-02-11T23:48:52.430Z,14.63
2023-02-11T23:51:19.298Z,13.48
2023-02-11T23:53:46.228Z,19.88
2023-02-11T23:56:21.790Z,16.15
2023-02-11T23:58:49.552Z,11.50
